Time;durP1;ratioP1;P1;durP2;ratioP2;P2;SDS_P1;SDS_P2;PMS_P1;PMS_P2;Temp;Humidity;BMP_temperature;BMP_pressure;BME280_temperature;BME280_humidity;BME280_pressure;Samples;Min_cycle;Max_cycle;Signal;HPM_P1;HPM_P2
2022/03/13 00:02:19;;;;;;;6.07;3.55;;;;;;;0.81;100.00;99803.78;5149610;27;20073;-60
2022/03/13 00:04:48;;;;;;;8.13;3.42;;;;;;;0.83;100.00;99798.91;5154218;27;20047;-60
2022/03/13 00:07:19;;;;;;;7.57;3.25;;;;;;;0.88;100.00;99809.66;5153785;27;20134;-60
2022/03/13 00:09:48;;;;;;;8.23;3.80;;;;;;;0.88;100.00;99821.25;5153803;27;20425;-60
2022/03/13 00:12:15;;;;;;;9.95;3.88;;;;;;;0.89;100.00;99833.66;5153686;27;20501;-59
2022/03/13 00:14:43;;;;;;;10.10;4.15;;;;;;;0.85;100.00;99851.53;5153418;27;20050;-60
2022/03/13 00:17:12;;;;;;;6.18;3.47;;;;;;;0.82;100.00;99879.06;5145294;27;20054;-59
2022/03/13 00:19:38;;;;;;;5.57;3.50;;;;;;;0.90;100.00;99912.75;5153422;27;20141;-60
2022/03/13 00:22:05;;;;;;;9.32;4.10;;;;;;;0.90;100.00;99926.25;5153402;27;20051;-60
2022/03/13 00:24:32;;;;;;;7.60;3.72;;;;;;;0.87;100.00;99933.03;5153283;27;20058;-60
2022/03/13 00:27:00;;;;;;;8.68;3.85;;;;;;;0.97;100.00;99948.34;5153631;27;20053;-59
2022/03/13 00:29:26;;;;;;;8.98;4.13;;;;;;;0.87;100.00;99943.84;5152874;27;20043;-60
2022/03/13 00:31:53;;;;;;;8.10;4.15;;;;;;;0.88;100.00;99958.94;5153629;27;20065;-60
2022/03/13 00:34:19;;;;;;;10.82;3.90;;;;;;;0.91;100.00;99971.06;5153257;27;20509;-60
2022/03/13 00:36:46;;;;;;;6.55;3.85;;;;;;;0.97;100.00;99958.31;5153179;27;20050;-59
2022/03/13 00:39:12;;;;;;;7.43;3.83;;;;;;;0.91;100.00;99952.19;5153143;27;20050;-60
2022/03/13 00:41:39;;;;;;;8.45;4.15;;;;;;;0.88;100.00;99958.13;5153278;27;20054;-60
2022/03/13 00:44:06;;;;;;;11.60;4.68;;;;;;;0.84;100.00;99966.00;5153237;27;20053;-60
2022/03/13 00:46:32;;;;;;;9.00;4.68;;;;;;;0.82;100.00;99986.25;5153144;27;20047;-60
2022/03/13 00:48:59;;;;;;;8.00;3.80;;;;;;;0.87;100.00;99992.44;5153014;27;20069;-60
2022/03/13 00:51:26;;;;;;;6.55;3.53;;;;;;;0.87;100.00;99994.31;5152926;27;20050;-60
2022/03/13 00:53:52;;;;;;;9.45;4.50;;;;;;;0.83;100.00;99972.47;5153375;27;20047;-60
2022/03/13 00:56:18;;;;;;;10.25;4.53;;;;;;;0.81;100.00;99990.03;5152874;27;20417;-60
2022/03/13 00:58:44;;;;;;;11.05;4.88;;;;;;;0.76;100.00;99980.06;5153182;27;20133;-60
2022/03/13 01:01:11;;;;;;;15.90;4.45;;;;;;;0.82;100.00;99991.66;5152652;27;20575;-60
2022/03/13 01:03:49;;;;;;;10.85;4.88;;;;;;;0.84;100.00;99998.38;5152740;27;20075;-60
2022/03/13 01:06:18;;;;;;;10.80;4.47;;;;;;;0.88;100.00;99975.13;5152911;27;20099;-60
2022/03/13 01:08:44;;;;;;;9.30;4.70;;;;;;;0.93;100.00;99964.31;5152585;27;20133;-60
2022/03/13 01:11:11;;;;;;;6.43;4.20;;;;;;;0.99;100.00;99931.88;5152625;27;20167;-60
2022/03/13 01:13:37;;;;;;;13.63;4.93;;;;;;;0.87;100.00;99905.25;5152699;27;20463;-60
2022/03/13 01:16:12;;;;;;;9.73;4.18;;;;;;;0.87;100.00;99892.53;5152692;27;20054;-60
2022/03/13 01:18:40;;;;;;;8.98;4.63;;;;;;;0.79;100.00;99854.56;5152421;27;20051;-60
2022/03/13 01:21:07;;;;;;;8.18;4.45;;;;;;;0.76;100.00;99864.00;5152831;27;20054;-59
2022/03/13 01:23:34;;;;;;;10.57;5.13;;;;;;;0.67;100.00;99863.81;5152360;27;20046;-60
2022/03/13 01:26:36;;;;;;;11.43;5.25;;;;;;;0.60;100.00;99884.94;5152539;27;20050;-60
2022/03/13 01:29:04;;;;;;;10.27;4.50;;;;;;;0.62;100.00;99909.72;5152640;27;20422;-59
2022/03/13 01:31:33;;;;;;;10.27;4.43;;;;;;;0.62;100.00;99930.50;5151545;27;20103;-60
2022/03/13 01:34:01;;;;;;;10.15;4.40;;;;;;;0.60;100.00;99913.78;5152955;27;20421;-60
2022/03/13 01:36:28;;;;;;;10.88;4.68;;;;;;;0.59;100.00;99912.97;5152542;27;20518;-60
2022/03/13 01:38:56;;;;;;;8.95;4.63;;;;;;;0.55;100.00;99917.34;5152599;27;20092;-60
2022/03/13 01:41:24;;;;;;;9.02;4.28;;;;;;;0.63;100.00;99924.84;5152114;27;20050;-60
2022/03/13 01:43:50;;;;;;;4.65;3.60;;;;;;;0.66;100.00;99910.78;5152092;27;20054;-60
2022/03/13 01:46:17;;;;;;;9.38;5.18;;;;;;;0.64;100.00;99899.47;5152219;27;20046;-60
2022/03/13 01:48:53;;;;;;;8.63;4.03;;;;;;;0.70;100.00;99882.16;5152152;27;20478;-60
2022/03/13 01:51:20;;;;;;;12.73;4.25;;;;;;;0.60;100.00;99871.44;5152285;27;20153;-60
2022/03/13 01:53:46;;;;;;;11.13;3.55;;;;;;;0.62;100.00;99869.25;5151971;27;20050;-60
2022/03/13 01:56:13;;;;;;;9.05;4.43;;;;;;;0.68;100.00;99883.53;5152080;27;20057;-60
2022/03/13 01:58:39;;;;;;;8.27;4.28;;;;;;;0.66;100.00;99880.28;5151749;27;20049;-60
2022/03/13 02:01:08;;;;;;;6.75;4.05;;;;;;;0.68;100.00;99870.81;5152054;27;20043;-60
2022/03/13 02:03:34;;;;;;;8.82;4.35;;;;;;;0.67;100.00;99873.81;5151881;27;20418;-60
2022/03/13 02:06:00;;;;;;;8.63;4.15;;;;;;;0.70;100.00;99857.88;5151812;27;20141;-60
2022/03/13 02:08:27;;;;;;;5.88;3.45;;;;;;;0.73;100.00;99867.28;5151803;27;20046;-60
2022/03/13 02:10:53;;;;;;;7.15;3.88;;;;;;;0.75;100.00;99854.31;5151165;27;20046;-60
2022/03/13 02:13:21;;;;;;;8.43;4.07;;;;;;;0.78;100.00;99840.25;5151951;27;20149;-60
2022/03/13 02:15:48;;;;;;;6.30;3.30;;;;;;;0.74;100.00;99801.44;5151599;27;20046;-60
2022/03/13 02:18:15;;;;;;;5.03;3.50;;;;;;;0.64;100.00;99774.53;5151724;27;20057;-60
2022/03/13 02:20:42;;;;;;;6.80;3.40;;;;;;;0.65;100.00;99749.16;5151429;27;20497;-60
2022/03/13 02:23:16;;;;;;;4.82;3.00;;;;;;;0.69;100.00;99731.28;5151797;27;20051;-60
2022/03/13 02:25:42;;;;;;;5.38;3.13;;;;;;;0.66;100.00;99702.19;5151451;27;20054;-60
2022/03/13 02:28:09;;;;;;;6.68;3.15;;;;;;;0.67;100.00;99685.72;5151682;27;20050;-60
2022/03/13 02:30:35;;;;;;;5.32;3.03;;;;;;;0.70;100.00;99682.44;5151158;27;20055;-60
2022/03/13 02:33:01;;;;;;;8.65;3.13;;;;;;;0.73;100.00;99669.47;5151665;27;20054;-60
2022/03/13 02:35:29;;;;;;;5.47;3.15;;;;;;;0.69;100.00;99655.75;5151310;27;20142;-60
2022/03/13 02:37:55;;;;;;;5.45;2.97;;;;;;;0.67;100.00;99660.63;5151120;27;20046;-60
2022/03/13 02:40:24;;;;;;;4.13;2.88;;;;;;;0.60;100.00;99668.25;5151148;27;20100;-60
2022/03/13 02:42:51;;;;;;;5.85;3.13;;;;;;;0.57;100.00;99677.75;5151254;27;20061;-60
2022/03/13 02:45:29;;;;;;;6.50;3.35;;;;;;;0.61;100.00;99678.75;5151444;27;20051;-60
2022/03/13 02:47:56;;;;;;;4.18;2.88;;;;;;;0.54;100.00;99661.31;5151330;27;20042;-60
2022/03/13 02:50:22;;;;;;;4.97;3.00;;;;;;;0.62;100.00;99676.88;5151310;27;20486;-60
2022/03/13 02:52:49;;;;;;;4.35;2.85;;;;;;;0.60;100.00;99676.34;5151162;27;20062;-60
2022/03/13 02:55:15;;;;;;;5.07;3.13;;;;;;;0.56;100.00;99680.69;5151551;27;20482;-59
2022/03/13 02:57:42;;;;;;;5.85;2.90;;;;;;;0.50;100.00;99671.06;5151189;27;20111;-60
2022/03/13 03:00:09;;;;;;;4.40;2.65;;;;;;;0.54;100.00;99675.59;5151155;27;20065;-60
2022/03/13 03:02:35;;;;;;;3.40;2.58;;;;;;;0.51;100.00;99672.69;5150794;27;20125;-60
2022/03/13 03:05:05;;;;;;;5.05;2.88;;;;;;;0.53;100.00;99679.38;5150870;27;20053;-60
2022/03/13 03:07:31;;;;;;;6.10;3.30;;;;;;;0.57;100.00;99663.44;5151026;27;20175;-60
2022/03/13 03:09:57;;;;;;;3.92;2.53;;;;;;;0.53;100.00;99646.19;5150954;27;20051;-60
2022/03/13 03:12:24;;;;;;;7.68;2.97;;;;;;;0.52;100.00;99648.09;5151327;27;20050;-59
2022/03/13 03:14:51;;;;;;;4.38;2.88;;;;;;;0.52;100.00;99639.22;5150919;27;20047;-60
2022/03/13 03:17:17;;;;;;;7.00;2.70;;;;;;;0.49;100.00;99635.19;5150887;27;20397;-59
2022/03/13 03:19:44;;;;;;;3.78;3.13;;;;;;;0.50;100.00;99644.06;5151146;27;20043;-60
2022/03/13 03:22:10;;;;;;;4.78;2.88;;;;;;;0.51;100.00;99634.91;5152004;27;20054;-59
2022/03/13 03:24:36;;;;;;;5.32;3.03;;;;;;;0.46;100.00;99641.94;5154773;27;20051;-59
2022/03/13 03:27:03;;;;;;;6.03;3.28;;;;;;;0.36;100.00;99641.25;5154882;27;20425;-60
2022/03/13 03:29:29;;;;;;;4.68;2.38;;;;;;;0.34;100.00;99655.03;5154373;27;20043;-60
2022/03/13 03:31:57;;;;;;;4.85;3.05;;;;;;;0.41;100.00;99666.28;5153834;27;20054;-60
2022/03/13 03:34:25;;;;;;;4.45;2.95;;;;;;;0.38;100.00;99666.84;5154457;27;20586;-60
2022/03/13 03:36:55;;;;;;;6.22;3.00;;;;;;;0.42;100.00;99665.19;5154598;27;20580;-59
2022/03/13 03:39:22;;;;;;;6.85;3.33;;;;;;;0.39;100.00;99667.66;5154330;27;20050;-60
2022/03/13 03:41:50;;;;;;;4.85;3.10;;;;;;;0.37;100.00;99656.38;5154094;27;20057;-60
2022/03/13 03:44:18;;;;;;;7.65;3.20;;;;;;;0.34;100.00;99668.53;5154358;27;20050;-60
2022/03/13 03:46:46;;;;;;;4.95;2.85;;;;;;;0.41;100.00;99690.56;5154124;27;20058;-60
2022/03/13 03:49:14;;;;;;;4.80;2.80;;;;;;;0.54;100.00;99694.50;5154390;27;20050;-59
2022/03/13 03:51:40;;;;;;;8.43;3.13;;;;;;;0.63;100.00;99686.56;5153999;27;20051;-60
2022/03/13 03:54:08;;;;;;;6.32;2.70;;;;;;;0.70;100.00;99677.06;5154088;27;20501;-60
2022/03/13 03:56:35;;;;;;;6.45;3.45;;;;;;;0.68;100.00;99662.22;5153983;27;20047;-60
2022/03/13 03:59:01;;;;;;;5.88;3.25;;;;;;;0.69;100.00;99650.34;5153831;27;20051;-60
2022/03/13 04:01:29;;;;;;;6.25;3.30;;;;;;;0.78;100.00;99651.31;5153655;27;20046;-60
2022/03/13 04:03:56;;;;;;;4.70;2.67;;;;;;;0.81;100.00;99647.25;5153961;27;20171;-60
2022/03/13 04:06:24;;;;;;;4.32;2.67;;;;;;;0.83;100.00;99636.94;5153750;27;20051;-60
2022/03/13 04:08:50;;;;;;;5.60;3.08;;;;;;;0.82;100.00;99624.56;5153709;27;20057;-60
2022/03/13 04:11:16;;;;;;;6.68;3.53;;;;;;;0.70;100.00;99620.38;5153903;27;20052;-60
2022/03/13 04:13:42;;;;;;;6.82;3.03;;;;;;;0.62;100.00;99633.69;5153704;27;20115;-59
2022/03/13 04:16:09;;;;;;;8.27;3.28;;;;;;;0.64;100.00;99650.41;5153829;27;20046;-60
2022/03/13 04:18:36;;;;;;;5.50;3.47;;;;;;;0.68;100.00;99663.03;5153593;27;20050;-60
2022/03/13 04:21:04;;;;;;;4.72;3.15;;;;;;;0.72;100.00;99659.75;5153588;27;20047;-60
2022/03/13 04:23:32;;;;;;;6.18;3.33;;;;;;;0.74;100.00;99668.38;5153509;27;20119;-60
2022/03/13 04:25:58;;;;;;;6.30;3.22;;;;;;;0.74;100.00;99663.00;5153400;27;20051;-60
2022/03/13 04:28:25;;;;;;;6.55;3.25;;;;;;;0.69;100.00;99655.75;5153493;27;20107;-60
2022/03/13 04:30:53;;;;;;;11.70;3.10;;;;;;;0.73;100.00;99666.75;5153018;27;20520;-60
2022/03/13 04:33:21;;;;;;;7.65;3.33;;;;;;;0.72;100.00;99663.25;5153419;27;20053;-60
2022/03/13 04:35:48;;;;;;;8.82;3.60;;;;;;;0.80;100.00;99676.13;5153295;27;20057;-60
2022/03/13 04:38:15;;;;;;;5.82;3.17;;;;;;;0.79;100.00;99666.41;5153366;27;20095;-60
2022/03/13 04:40:42;;;;;;;6.63;3.08;;;;;;;0.77;100.00;99649.72;5153255;27;20085;-60
2022/03/13 04:43:08;;;;;;;6.13;3.28;;;;;;;0.63;100.00;99655.00;5153487;27;20104;-60
2022/03/13 04:45:35;;;;;;;11.55;3.55;;;;;;;0.64;100.00;99656.63;5153139;27;20058;-59
2022/03/13 04:48:01;;;;;;;5.82;3.20;;;;;;;0.55;100.00;99652.94;5153193;27;20043;-60
2022/03/13 04:50:27;;;;;;;5.03;3.10;;;;;;;0.43;100.00;99666.00;5153168;27;20057;-59
2022/03/13 04:52:54;;;;;;;8.38;3.40;;;;;;;0.33;100.00;99664.19;5153069;27;20069;-60
2022/03/13 04:55:20;;;;;;;4.43;2.80;;;;;;;0.34;100.00;99671.22;5152931;27;20047;-60
2022/03/13 04:57:47;;;;;;;5.63;2.92;;;;;;;0.42;100.00;99672.47;5152840;27;20057;-60
2022/03/13 05:00:15;;;;;;;5.15;3.38;;;;;;;0.50;100.00;99674.56;5153171;27;20133;-60
2022/03/13 05:02:41;;;;;;;3.53;3.00;;;;;;;0.61;100.00;99669.88;5152636;27;20103;-59
2022/03/13 05:05:08;;;;;;;5.25;3.13;;;;;;;0.60;100.00;99657.44;5153166;27;20047;-60
2022/03/13 05:07:38;;;;;;;4.28;2.85;;;;;;;0.47;100.00;99653.56;5152864;27;20046;-60
2022/03/13 05:10:05;;;;;;;8.32;3.28;;;;;;;0.50;100.00;99671.88;5152890;27;20051;-60
2022/03/13 05:12:32;;;;;;;3.42;2.97;;;;;;;0.59;100.00;99674.75;5152647;27;20498;-60
2022/03/13 05:14:59;;;;;;;6.25;3.22;;;;;;;0.51;100.00;99668.09;5152831;27;20047;-61
2022/03/13 05:17:25;;;;;;;4.63;3.00;;;;;;;0.60;100.00;99685.25;5152701;27;20047;-60
2022/03/13 05:19:52;;;;;;;6.55;2.95;;;;;;;0.67;100.00;99676.81;5152621;27;20046;-60
2022/03/13 05:22:18;;;;;;;4.47;2.22;;;;;;;0.67;100.00;99671.44;5152566;27;20057;-60
2022/03/13 05:24:44;;;;;;;5.65;2.80;;;;;;;0.63;100.00;99635.28;5152331;27;20138;-60
2022/03/13 05:27:10;;;;;;;4.85;3.17;;;;;;;0.63;100.00;99630.72;5152324;27;20055;-60
2022/03/13 05:29:36;;;;;;;6.28;2.78;;;;;;;0.68;100.00;99625.25;5152447;27;20053;-60
2022/03/13 05:32:04;;;;;;;5.05;3.03;;;;;;;0.73;100.00;99643.28;5152276;27;20066;-60
2022/03/13 05:34:31;;;;;;;6.28;3.20;;;;;;;0.75;100.00;99641.09;5152309;27;20050;-60
2022/03/13 05:36:57;;;;;;;4.60;2.97;;;;;;;0.81;100.00;99631.84;5152453;27;20069;-60
2022/03/13 05:39:23;;;;;;;6.88;3.20;;;;;;;0.77;100.00;99644.31;5152167;27;20205;-61
2022/03/13 05:41:50;;;;;;;4.32;3.08;;;;;;;0.75;100.00;99633.00;5152589;27;20059;-60
2022/03/13 05:44:17;;;;;;;5.68;3.08;;;;;;;0.73;100.00;99623.59;5152001;27;20160;-60
2022/03/13 05:46:43;;;;;;;8.70;3.17;;;;;;;0.68;100.00;99633.34;5151846;27;20062;-60
2022/03/13 05:49:10;;;;;;;7.47;3.15;;;;;;;0.72;100.00;99641.66;5152282;27;20054;-60
2022/03/13 05:51:37;;;;;;;8.00;3.05;;;;;;;0.74;100.00;99638.69;5152301;27;20348;-60
2022/03/13 05:54:03;;;;;;;4.20;2.70;;;;;;;0.77;100.00;99644.31;5152169;27;20092;-61
2022/03/13 05:56:30;;;;;;;4.65;3.15;;;;;;;0.78;100.00;99629.72;5152147;27;20051;-60
2022/03/13 05:58:56;;;;;;;6.25;2.92;;;;;;;0.87;100.00;99632.59;5152503;27;20043;-60
2022/03/13 06:01:22;;;;;;;7.00;2.95;;;;;;;0.85;100.00;99630.19;5151934;27;20057;-60
2022/03/13 06:03:48;;;;;;;4.22;2.83;;;;;;;0.92;100.00;99625.22;5152246;27;20091;-61
2022/03/13 06:06:15;;;;;;;8.82;2.88;;;;;;;1.06;100.00;99616.41;5151810;27;20047;-61
2022/03/13 06:08:42;;;;;;;6.60;3.33;;;;;;;1.00;100.00;99614.88;5151875;27;20042;-61
2022/03/13 06:11:08;;;;;;;7.47;3.05;;;;;;;1.02;100.00;99607.28;5151692;27;20080;-60
2022/03/13 06:13:35;;;;;;;8.10;3.47;;;;;;;1.02;100.00;99615.41;5151787;27;20047;-61
2022/03/13 06:16:01;;;;;;;4.80;2.92;;;;;;;1.05;100.00;99609.41;5151718;27;20050;-61
2022/03/13 06:18:27;;;;;;;5.78;3.03;;;;;;;1.06;100.00;99595.59;5151611;27;20530;-61
2022/03/13 06:20:54;;;;;;;3.47;2.38;;;;;;;1.08;100.00;99595.34;5151535;27;20106;-61
2022/03/13 06:23:21;;;;;;;4.72;2.60;;;;;;;1.05;100.00;99595.91;5151350;27;20529;-61
2022/03/13 06:25:48;;;;;;;4.72;2.60;;;;;;;1.12;100.00;99589.06;5151735;27;20099;-61
2022/03/13 06:28:14;;;;;;;4.13;2.67;;;;;;;1.22;100.00;99595.41;5151549;27;20043;-60
2022/03/13 06:30:41;;;;;;;4.35;2.63;;;;;;;1.22;100.00;99596.22;5151312;27;20459;-61
2022/03/13 06:33:07;;;;;;;5.25;3.17;;;;;;;1.22;100.00;99588.09;5151428;27;20099;-60
2022/03/13 06:35:33;;;;;;;5.10;2.53;;;;;;;1.18;100.00;99587.09;5151506;27;20042;-60
2022/03/13 06:38:00;;;;;;;5.82;2.95;;;;;;;1.18;100.00;99592.50;5151290;27;20497;-61
2022/03/13 06:40:27;;;;;;;4.28;2.83;;;;;;;1.25;100.00;99601.03;5151617;27;20545;-60
2022/03/13 06:42:55;;;;;;;7.55;2.90;;;;;;;1.16;100.00;99597.38;5151242;27;20050;-60
2022/03/13 06:45:22;;;;;;;4.07;2.83;;;;;;;1.13;100.00;99595.25;5151299;27;20069;-60
2022/03/13 06:47:49;;;;;;;3.53;2.53;;;;;;;1.06;100.00;99602.91;5151255;27;20055;-60
2022/03/13 06:50:17;;;;;;;5.20;3.40;;;;;;;1.15;100.00;99603.88;5151072;27;20047;-61
2022/03/13 06:52:44;;;;;;;6.95;3.42;;;;;;;1.25;100.00;99608.34;5150970;27;20050;-61
2022/03/13 06:55:13;;;;;;;5.72;2.63;;;;;;;1.30;100.00;99608.25;5151321;27;20505;-60
2022/03/13 06:57:40;;;;;;;5.47;3.20;;;;;;;1.25;100.00;99606.44;5154194;27;20072;-61
2022/03/13 07:00:08;;;;;;;2.80;2.50;;;;;;;1.29;100.00;99609.34;5154658;27;20081;-60
2022/03/13 07:02:34;;;;;;;5.88;2.90;;;;;;;1.37;100.00;99617.59;5154973;27;20580;-61
2022/03/13 07:05:00;;;;;;;3.88;2.92;;;;;;;1.37;100.00;99614.91;5154713;27;20054;-60
2022/03/13 07:07:27;;;;;;;5.90;3.00;;;;;;;1.45;100.00;99615.34;5154870;27;20451;-60
2022/03/13 07:09:53;;;;;;;5.88;3.10;;;;;;;1.62;100.00;99612.91;5154602;27;20050;-60
2022/03/13 07:12:20;;;;;;;5.38;3.47;;;;;;;1.68;100.00;99619.84;5154656;27;20058;-61
2022/03/13 07:14:48;;;;;;;6.93;3.53;;;;;;;1.64;100.00;99619.63;5154548;27;20078;-61
2022/03/13 07:17:15;;;;;;;5.28;2.80;;;;;;;1.66;100.00;99627.44;5154393;27;20090;-61
2022/03/13 07:19:43;;;;;;;4.57;2.70;;;;;;;1.76;100.00;99624.56;5154510;27;20194;-61
2022/03/13 07:22:10;;;;;;;3.85;2.75;;;;;;;1.88;100.00;99630.31;5154409;27;20054;-61
2022/03/13 07:24:36;;;;;;;3.85;2.60;;;;;;;1.91;100.00;99626.22;5154832;27;20127;-61
2022/03/13 07:27:03;;;;;;;3.92;2.53;;;;;;;1.99;100.00;99632.84;5154354;27;20050;-61
2022/03/13 07:29:29;;;;;;;7.47;2.90;;;;;;;2.02;100.00;99634.97;5154512;27;20103;-61
2022/03/13 07:31:56;;;;;;;7.20;2.67;;;;;;;2.01;100.00;99642.28;5153874;27;20467;-61
2022/03/13 07:34:23;;;;;;;3.88;2.67;;;;;;;1.97;100.00;99641.28;5154525;27;20553;-61
2022/03/13 07:36:49;;;;;;;4.32;2.72;;;;;;;1.94;100.00;99644.56;5154263;27;20051;-60
2022/03/13 07:39:16;;;;;;;5.18;2.95;;;;;;;1.94;100.00;99636.44;5154087;27;20522;-61
2022/03/13 07:41:42;;;;;;;3.25;2.50;;;;;;;1.99;100.00;99644.47;5153861;27;20141;-61
2022/03/13 07:44:10;;;;;;;6.05;2.80;;;;;;;2.03;100.00;99645.50;5154023;27;20137;-61
2022/03/13 07:46:36;;;;;;;3.97;2.60;;;;;;;2.05;100.00;99645.19;5154341;27;20050;-61
2022/03/13 07:49:04;;;;;;;3.50;2.33;;;;;;;2.10;100.00;99654.03;5153812;27;20532;-61
2022/03/13 07:51:32;;;;;;;3.03;2.42;;;;;;;1.99;100.00;99655.28;5154169;27;20058;-60
2022/03/13 07:53:58;;;;;;;3.67;2.78;;;;;;;1.90;100.00;99654.38;5153902;27;20099;-61
2022/03/13 07:56:25;;;;;;;5.47;2.92;;;;;;;1.93;100.00;99663.78;5153893;27;20057;-61
2022/03/13 07:58:51;;;;;;;4.20;2.60;;;;;;;1.97;100.00;99667.50;5153883;27;20046;-61
2022/03/13 08:01:17;;;;;;;4.30;2.60;;;;;;;2.02;100.00;99662.00;5154054;27;20414;-61
2022/03/13 08:03:45;;;;;;;5.43;2.70;;;;;;;2.07;100.00;99664.63;5153939;27;20047;-61
2022/03/13 08:06:12;;;;;;;5.40;2.60;;;;;;;2.07;100.00;99662.72;5153931;27;20443;-61
2022/03/13 08:08:38;;;;;;;4.30;2.67;;;;;;;2.14;100.00;99658.84;5153040;27;20051;-61
2022/03/13 08:11:05;;;;;;;7.20;3.35;;;;;;;2.20;100.00;99663.03;5153652;27;20054;-61
2022/03/13 08:13:31;;;;;;;4.82;2.75;;;;;;;2.22;100.00;99660.84;5153578;27;20066;-61
2022/03/13 08:15:57;;;;;;;7.53;3.05;;;;;;;2.23;100.00;99666.00;5153771;27;20073;-60
2022/03/13 08:18:23;;;;;;;6.50;3.22;;;;;;;2.15;100.00;99673.97;5153920;27;20058;-60
2022/03/13 08:20:50;;;;;;;4.18;3.00;;;;;;;2.16;100.00;99672.88;5153642;27;20061;-61
2022/03/13 08:23:17;;;;;;;6.70;2.72;;;;;;;2.13;100.00;99674.25;5153809;27;20051;-61
2022/03/13 08:25:43;;;;;;;3.65;3.03;;;;;;;2.07;100.00;99673.56;5153425;27;20494;-61
2022/03/13 08:28:09;;;;;;;5.35;3.10;;;;;;;2.11;100.00;99665.66;5153447;27;20095;-61
2022/03/13 08:30:36;;;;;;;4.95;3.03;;;;;;;2.13;100.00;99671.53;5152944;27;20050;-61
2022/03/13 08:33:03;;;;;;;4.95;2.95;;;;;;;2.08;100.00;99685.97;5153447;27;20054;-60
2022/03/13 08:35:30;;;;;;;8.07;3.20;;;;;;;2.06;100.00;99690.84;5153379;27;20055;-61
2022/03/13 08:37:56;;;;;;;4.25;2.83;;;;;;;2.19;100.00;99683.09;5153090;27;20051;-61
2022/03/13 08:40:25;;;;;;;4.60;2.72;;;;;;;2.20;100.00;99684.69;5153255;27;20054;-61
2022/03/13 08:42:51;;;;;;;4.95;2.90;;;;;;;2.22;100.00;99682.50;5153272;27;20050;-61
2022/03/13 08:45:18;;;;;;;6.75;2.90;;;;;;;2.36;100.00;99683.31;5152983;27;20059;-60
2022/03/13 08:47:44;;;;;;;4.93;2.83;;;;;;;2.51;100.00;99690.38;5153176;27;20047;-60
2022/03/13 08:50:11;;;;;;;5.90;3.95;;;;;;;2.33;100.00;99708.28;5153205;27;20051;-61
2022/03/13 08:52:37;;;;;;;6.45;3.25;;;;;;;2.27;100.00;99696.75;5152979;27;20492;-61
2022/03/13 08:55:05;;;;;;;5.90;2.88;;;;;;;2.34;100.00;99699.06;5152742;27;20051;-60
2022/03/13 08:57:32;;;;;;;5.03;3.13;;;;;;;2.33;100.00;99703.69;5152993;27;20562;-61
2022/03/13 08:59:59;;;;;;;4.43;3.00;;;;;;;2.36;100.00;99705.78;5153125;27;20054;-60
2022/03/13 09:02:25;;;;;;;4.05;2.85;;;;;;;2.33;100.00;99702.88;5152841;27;20494;-61
2022/03/13 09:04:51;;;;;;;4.90;3.22;;;;;;;2.34;100.00;99697.16;5152867;27;20053;-61
2022/03/13 09:07:17;;;;;;;8.35;3.80;;;;;;;2.44;100.00;99701.59;5152844;27;20055;-61
2022/03/13 09:09:44;;;;;;;5.75;3.30;;;;;;;2.59;100.00;99700.50;5152848;27;20047;-61
2022/03/13 09:12:11;;;;;;;4.20;3.25;;;;;;;2.65;100.00;99701.22;5152923;27;20578;-61
2022/03/13 09:14:39;;;;;;;7.68;4.03;;;;;;;2.57;100.00;99716.28;5152946;27;20099;-61
2022/03/13 09:17:05;;;;;;;5.80;3.63;;;;;;;2.57;100.00;99714.34;5152603;27;20051;-61
2022/03/13 09:19:33;;;;;;;4.53;3.17;;;;;;;2.50;100.00;99716.66;5151614;27;20043;-61
2022/03/13 09:21:59;;;;;;;5.45;3.58;;;;;;;2.58;100.00;99715.16;5152519;27;20055;-61
2022/03/13 09:24:26;;;;;;;6.82;3.92;;;;;;;2.49;100.00;99715.03;5152488;27;20050;-61
2022/03/13 09:26:52;;;;;;;5.45;3.85;;;;;;;2.58;100.00;99720.56;5152870;27;20053;-61
2022/03/13 09:29:18;;;;;;;8.02;4.10;;;;;;;2.62;100.00;99718.06;5152899;27;20055;-61
2022/03/13 09:31:45;;;;;;;5.03;3.05;;;;;;;2.69;100.00;99715.78;5151897;27;20061;-61
2022/03/13 09:34:12;;;;;;;5.88;3.60;;;;;;;2.72;100.00;99726.81;5152516;27;20057;-61
2022/03/13 09:36:38;;;;;;;7.53;3.22;;;;;;;2.70;100.00;99725.50;5152243;27;20438;-61
2022/03/13 09:39:05;;;;;;;9.15;4.22;;;;;;;2.75;100.00;99717.28;5152108;27;20054;-61
2022/03/13 09:41:31;;;;;;;6.40;3.97;;;;;;;2.85;100.00;99719.00;5152088;27;20051;-61
2022/03/13 09:43:57;;;;;;;6.13;4.15;;;;;;;2.87;100.00;99716.81;5152301;27;20609;-61
2022/03/13 09:46:24;;;;;;;6.38;4.03;;;;;;;2.88;100.00;99734.66;5152404;27;20050;-61
2022/03/13 09:48:52;;;;;;;7.20;3.85;;;;;;;2.85;100.00;99740.66;5152256;27;20569;-61
2022/03/13 09:51:19;;;;;;;14.73;4.97;;;;;;;2.78;100.00;99738.34;5152071;27;20054;-61
2022/03/13 09:53:46;;;;;;;14.68;4.40;;;;;;;2.82;100.00;99737.44;5151871;27;20046;-61
2022/03/13 09:56:12;;;;;;;6.45;3.58;;;;;;;2.83;100.00;99732.81;5152115;27;20104;-61
2022/03/13 09:58:40;;;;;;;5.90;3.67;;;;;;;2.96;100.00;99726.63;5152043;27;20137;-61
2022/03/13 10:01:08;;;;;;;5.60;3.58;;;;;;;3.06;100.00;99741.88;5151793;27;20046;-61
2022/03/13 10:03:34;;;;;;;4.97;3.72;;;;;;;2.91;100.00;99759.22;5151848;27;20042;-61
2022/03/13 10:06:01;;;;;;;6.65;3.90;;;;;;;2.86;100.00;99753.91;5151821;27;20051;-61
2022/03/13 10:08:30;;;;;;;7.03;3.80;;;;;;;2.86;100.00;99737.66;5152033;27;20097;-61
2022/03/13 10:10:57;;;;;;;6.95;4.15;;;;;;;2.82;100.00;99740.16;5152056;27;20051;-61
2022/03/13 10:13:38;;;;;;;6.60;3.90;;;;;;;3.06;100.00;99736.47;5152176;27;20092;-61
2022/03/13 10:16:06;;;;;;;6.80;3.58;;;;;;;3.18;100.00;99753.03;5152006;27;20051;-61
2022/03/13 10:18:33;;;;;;;9.43;3.03;;;;;;;3.24;100.00;99762.66;5151700;27;20464;-61
2022/03/13 10:21:08;;;;;;;6.18;3.80;;;;;;;3.29;100.00;99781.50;5151703;27;20042;-61
2022/03/13 10:23:35;;;;;;;5.55;3.65;;;;;;;3.27;100.00;99794.56;5151687;27;20046;-61
2022/03/13 10:26:02;;;;;;;3.88;3.15;;;;;;;3.26;100.00;99779.41;5151647;27;20050;-61
2022/03/13 10:28:31;;;;;;;5.07;3.65;;;;;;;3.14;100.00;99781.03;5151833;27;20105;-61
2022/03/13 10:31:15;;;;;;;6.88;3.75;;;;;;;3.19;100.00;99762.75;5150501;27;20065;-61
2022/03/13 10:33:55;;;;;;;6.25;3.35;;;;;;;3.27;100.00;99766.69;5151586;27;20566;-61
2022/03/13 10:36:31;;;;;;;9.45;4.03;;;;;;;3.57;100.00;99753.59;5151380;27;20042;-61
2022/03/13 10:38:58;;;;;;;10.35;4.95;;;;;;;3.69;100.00;99767.44;5151952;27;20053;-61
2022/03/13 10:41:39;;;;;;;7.15;3.58;;;;;;;3.67;100.00;99784.00;5151488;27;20050;-61
2022/03/13 10:44:06;;;;;;;7.43;3.90;;;;;;;3.65;100.00;99778.09;5151781;27;20047;-61
2022/03/13 10:46:35;;;;;;;6.85;3.65;;;;;;;3.58;100.00;99788.53;5151305;27;20067;-61
2022/03/13 10:49:05;;;;;;;6.57;3.45;;;;;;;3.37;100.00;99790.06;5151165;27;20094;-61
2022/03/13 10:51:36;;;;;;;7.00;3.60;;;;;;;3.37;100.00;99782.75;5151036;27;20051;-61
2022/03/13 10:54:04;;;;;;;6.38;3.80;;;;;;;3.33;100.00;99789.03;5151205;27;20584;-61
2022/03/13 10:56:30;;;;;;;7.75;4.13;;;;;;;3.41;100.00;99780.22;5151237;27;20042;-61
2022/03/13 10:58:59;;;;;;;6.80;3.88;;;;;;;3.67;100.00;99783.22;5151281;27;20425;-61
2022/03/13 11:01:27;;;;;;;8.02;3.53;;;;;;;3.91;100.00;99796.53;5151051;27;20050;-61
2022/03/13 11:03:54;;;;;;;7.50;3.60;;;;;;;3.94;100.00;99823.84;5151022;27;20043;-62
2022/03/13 11:06:22;;;;;;;7.65;3.30;;;;;;;3.84;100.00;99834.91;5150850;27;20058;-61
2022/03/13 11:08:52;;;;;;;5.82;3.83;;;;;;;3.86;100.00;99834.59;5151034;27;20051;-61
2022/03/13 11:11:18;;;;;;;6.22;4.15;;;;;;;3.99;100.00;99836.47;5151049;27;20505;-61
2022/03/13 11:13:51;;;;;;;6.70;3.88;;;;;;;4.24;100.00;99829.72;5151182;27;20448;-61
2022/03/13 11:16:22;;;;;;;6.88;3.95;;;;;;;4.41;100.00;99840.69;5150778;27;20099;-61
2022/03/13 11:18:51;;;;;;;5.57;3.55;;;;;;;4.50;100.00;99854.34;5150977;27;20505;-61
2022/03/13 11:21:18;;;;;;;9.07;3.75;;;;;;;4.37;100.00;99872.28;5151117;27;20043;-61
2022/03/13 11:23:45;;;;;;;5.05;3.70;;;;;;;4.16;100.00;99852.94;5151129;27;20099;-61
2022/03/13 11:26:14;;;;;;;8.55;3.70;;;;;;;4.34;100.00;99839.53;5150848;27;20099;-61
2022/03/13 11:28:43;;;;;;;5.38;3.80;;;;;;;4.40;100.00;99846.44;5150998;27;20137;-61
2022/03/13 11:31:30;;;;;;;7.35;4.35;;;;;;;4.49;100.00;99856.25;5150103;27;20129;-61
2022/03/13 11:34:14;;;;;;;4.82;3.70;;;;;;;4.53;100.00;99861.88;5150713;27;20142;-61